createdAt,value
2022-11-05T00:00:20.817Z,99309.56
2022-11-05T00:02:47.474Z,99306.28
2022-11-05T00:05:14.727Z,99303.56
2022-11-05T00:07:47.848Z,99302.34
2022-11-05T00:10:18.478Z,99303.16
2022-11-05T00:12:45.246Z,99299.22
2022-11-05T00:15:11.842Z,99297.06
2022-11-05T00:17:39.814Z,99307.28
2022-11-05T00:20:08.467Z,99301.84
2022-11-05T00:22:35.061Z,99299.25
2022-11-05T00:25:01.697Z,99300.31
2022-11-05T00:27:28.266Z,99297.59
2022-11-05T00:29:54.908Z,99302.16
2022-11-05T00:32:21.467Z,99300.72
2022-11-05T00:34:48.050Z,99306.03
2022-11-05T00:37:14.605Z,99312.03
2022-11-05T00:39:41.280Z,99320.34
2022-11-05T00:42:07.865Z,99331.91
2022-11-05T00:44:34.455Z,99328.38
2022-11-05T00:47:01.324Z,99327.78
2022-11-05T00:49:27.924Z,99324.16
2022-11-05T00:51:54.544Z,99321.78
2022-11-05T00:54:21.135Z,99319.28
2022-11-05T00:56:47.700Z,99315.63
2022-11-05T00:59:14.287Z,99320.06
2022-11-05T01:01:41.035Z,99313.03
2022-11-05T01:04:07.681Z,99314.66
2022-11-05T01:06:34.304Z,99313.66
2022-11-05T01:09:00.896Z,99315.78
2022-11-05T01:11:27.461Z,99312.66
2022-11-05T01:13:54.046Z,99297.28
2022-11-05T01:16:20.656Z,99309.56
2022-11-05T01:18:47.251Z,99303.00
2022-11-05T01:21:14.663Z,99313.09
2022-11-05T01:23:41.545Z,99315.00
2022-11-05T01:26:08.102Z,99315.97
2022-11-05T01:28:34.780Z,99315.47
2022-11-05T01:31:01.417Z,99306.31
2022-11-05T01:33:27.992Z,99307.91
2022-11-05T01:35:54.570Z,99313.22
2022-11-05T01:38:21.144Z,99322.09
2022-11-05T01:40:47.726Z,99330.78
2022-11-05T01:43:20.758Z,99336.47
2022-11-05T01:45:53.445Z,99337.41
2022-11-05T01:48:30.254Z,99343.66
2022-11-05T01:51:01.238Z,99341.59
2022-11-05T01:53:36.839Z,99342.22
2022-11-05T01:56:10.199Z,99335.16
2022-11-05T01:58:43.995Z,99329.13
2022-11-05T02:01:11.891Z,99328.56
2022-11-05T02:03:40.050Z,99334.22
2022-11-05T02:06:06.830Z,99344.53
2022-11-05T02:08:59.622Z,99342.38
2022-11-05T02:11:26.300Z,99342.03
2022-11-05T02:13:52.919Z,99332.53
2022-11-05T02:16:43.921Z,99334.28
2022-11-05T02:19:20.316Z,99337.78
2022-11-05T02:22:05.645Z,99333.41
2022-11-05T02:24:38.101Z,99340.53
2022-11-05T02:27:26.463Z,99336.16
2022-11-05T02:30:11.733Z,99348.94
2022-11-05T02:32:54.848Z,99338.56
2022-11-05T02:35:41.751Z,99340.03
2022-11-05T02:38:52.876Z,99351.56
2022-11-05T02:41:35.872Z,99355.94
2022-11-05T02:44:23.718Z,99373.25
2022-11-05T02:47:08.409Z,99375.50
2022-11-05T02:49:59.280Z,99380.75
2022-11-05T02:52:37.776Z,99384.13
2022-11-05T02:55:40.500Z,99385.19
2022-11-05T02:58:07.439Z,99376.00
2022-11-05T03:00:55.671Z,99363.75
2022-11-05T03:03:40.492Z,99362.28
2022-11-05T03:06:33.859Z,99360.31
2022-11-05T03:09:34.325Z,99368.25
2022-11-05T03:12:12.608Z,99379.38
2022-11-05T03:14:42.127Z,99378.25
2022-11-05T03:17:39.379Z,99394.00
2022-11-05T03:20:18.009Z,99384.97
2022-11-05T03:23:12.870Z,99396.84
2022-11-05T03:25:46.159Z,99396.38
2022-11-05T03:28:15.242Z,99402.94
2022-11-05T03:30:43.750Z,99397.94
2022-11-05T03:33:17.292Z,99393.63
2022-11-05T03:35:48.323Z,99397.44
2022-11-05T03:38:22.121Z,99395.63
2022-11-05T03:40:53.560Z,99391.13
2022-11-05T03:43:24.080Z,99393.38
2022-11-05T03:45:57.018Z,99397.69
2022-11-05T03:48:28.162Z,99396.72
2022-11-05T03:51:10.459Z,99404.88
2022-11-05T03:53:43.766Z,99406.78
2022-11-05T03:56:20.895Z,99414.34
2022-11-05T03:58:48.903Z,99412.53
2022-11-05T04:01:16.347Z,99409.69
2022-11-05T04:03:43.017Z,99402.84
2022-11-05T04:06:10.631Z,99398.66
2022-11-05T04:08:37.213Z,99397.25
2022-11-05T04:11:05.055Z,99392.72
2022-11-05T04:13:32.751Z,99395.28
2022-11-05T04:15:59.315Z,99397.16
2022-11-05T04:18:25.905Z,99399.97
2022-11-05T04:20:52.518Z,99383.81
2022-11-05T04:23:19.088Z,99377.91
2022-11-05T04:25:45.645Z,99385.44
2022-11-05T04:28:12.583Z,99393.16
2022-11-05T04:30:40.034Z,99384.88
2022-11-05T04:33:15.501Z,99385.84
2022-11-05T04:35:47.660Z,99379.59
2022-11-05T04:38:19.220Z,99387.44
2022-11-05T04:40:47.233Z,99377.63
2022-11-05T04:43:16.926Z,99377.03
2022-11-05T04:45:44.788Z,99380.59
2022-11-05T04:48:12.234Z,99376.91
2022-11-05T04:50:39.230Z,99383.00
2022-11-05T04:53:05.835Z,99391.75
2022-11-05T04:55:32.488Z,99396.84
2022-11-05T04:57:59.196Z,99394.44
2022-11-05T05:00:25.834Z,99395.84
2022-11-05T05:02:52.465Z,99396.94
2022-11-05T05:05:19.047Z,99398.56
2022-11-05T05:07:45.694Z,99394.47
2022-11-05T05:10:12.957Z,99401.16
2022-11-05T05:12:39.653Z,99395.53
2022-11-05T05:15:06.787Z,99410.13
2022-11-05T05:17:33.388Z,99400.03
2022-11-05T05:19:59.982Z,99395.91
2022-11-05T05:22:26.679Z,99399.22
2022-11-05T05:24:53.336Z,99407.78
2022-11-05T05:27:20.629Z,99402.47
2022-11-05T05:29:47.216Z,99396.81
2022-11-05T05:32:13.795Z,99403.44
2022-11-05T05:34:40.352Z,99396.34
2022-11-05T05:37:07.009Z,99398.53
2022-11-05T05:39:33.592Z,99401.59
2022-11-05T05:42:00.174Z,99409.13
2022-11-05T05:44:26.786Z,99415.06
2022-11-05T05:46:54.547Z,99416.41
2022-11-05T05:49:21.248Z,99422.16
2022-11-05T05:51:51.109Z,99423.38
2022-11-05T05:54:17.658Z,99424.72
2022-11-05T05:56:45.243Z,99434.19
2022-11-05T05:59:12.341Z,99445.09
2022-11-05T06:01:39.143Z,99444.09
2022-11-05T06:04:05.763Z,99445.94
2022-11-05T06:06:32.565Z,99454.88
2022-11-05T06:08:59.212Z,99461.53
2022-11-05T06:11:25.818Z,99470.91
2022-11-05T06:13:52.383Z,99474.59
2022-11-05T06:16:18.972Z,99472.63
2022-11-05T06:18:46.489Z,99482.88
2022-11-05T06:21:16.405Z,99470.25
2022-11-05T06:23:45.188Z,99478.91
2022-11-05T06:26:17.321Z,99485.81
2022-11-05T06:28:44.720Z,99488.25
2022-11-05T06:31:13.269Z,99490.88
2022-11-05T06:33:40.672Z,99495.88
2022-11-05T06:36:08.545Z,99489.41
2022-11-05T06:38:36.535Z,99498.78
2022-11-05T06:41:09.783Z,99500.47
2022-11-05T06:43:37.808Z,99509.78
2022-11-05T06:46:04.585Z,99502.38
2022-11-05T06:48:31.237Z,99500.44
2022-11-05T06:50:57.979Z,99499.38
2022-11-05T06:53:24.652Z,99506.22
2022-11-05T06:55:51.309Z,99496.06
2022-11-05T06:58:17.886Z,99496.16
2022-11-05T07:00:44.604Z,99505.06
2022-11-05T07:03:12.998Z,99509.97
2022-11-05T07:05:48.694Z,99507.44
2022-11-05T07:08:16.097Z,99508.97
2022-11-05T07:10:42.904Z,99501.13
2022-11-05T07:13:09.804Z,99504.38
2022-11-05T07:15:37.137Z,99510.63
2022-11-05T07:18:04.902Z,99508.97
2022-11-05T07:20:34.100Z,99511.69
2022-11-05T07:23:06.760Z,99501.28
2022-11-05T07:25:34.212Z,99503.53
2022-11-05T07:28:01.397Z,99504.34
2022-11-05T07:30:28.895Z,99501.91
2022-11-05T07:32:55.588Z,99501.75
2022-11-05T07:35:22.431Z,99506.97
2022-11-05T07:37:51.772Z,99501.75
2022-11-05T07:40:18.868Z,99507.75
2022-11-05T07:42:47.950Z,99508.66
2022-11-05T07:45:15.375Z,99506.03
2022-11-05T07:47:52.227Z,99510.28
2022-11-05T07:50:20.866Z,99516.50
2022-11-05T07:52:47.468Z,99522.28
2022-11-05T07:55:14.849Z,99521.22
2022-11-05T07:57:48.786Z,99516.00
2022-11-05T08:00:20.388Z,99515.81
2022-11-05T08:03:12.278Z,99513.31
2022-11-05T08:05:41.613Z,99514.03
2022-11-05T08:08:10.106Z,99515.03
2022-11-05T08:10:37.862Z,99514.88
2022-11-05T08:13:05.741Z,99514.78
2022-11-05T08:15:33.234Z,99510.59
2022-11-05T08:18:11.321Z,99509.56
2022-11-05T08:20:38.474Z,99492.91
2022-11-05T08:23:05.627Z,99493.34
2022-11-05T08:25:32.646Z,99492.88
2022-11-05T08:28:07.562Z,99487.03
2022-11-05T08:30:34.535Z,99481.19
2022-11-05T08:33:07.225Z,99488.72
2022-11-05T08:35:35.478Z,99495.88
2022-11-05T08:38:04.381Z,99499.13
2022-11-05T08:40:33.457Z,99494.88
2022-11-05T08:43:01.443Z,99505.28
2022-11-05T08:45:28.965Z,99510.91
2022-11-05T08:48:07.718Z,99506.97
2022-11-05T08:50:35.233Z,99519.78
2022-11-05T08:53:01.835Z,99515.03
2022-11-05T08:55:29.083Z,99516.81
2022-11-05T08:57:59.926Z,99508.00
2022-11-05T09:00:28.146Z,99522.81
2022-11-05T09:02:54.782Z,99516.28
2022-11-05T09:05:21.564Z,99523.38
2022-11-05T09:07:48.122Z,99530.09
2022-11-05T09:10:14.892Z,99534.63
2022-11-05T09:12:41.585Z,99539.44
2022-11-05T09:15:08.812Z,99536.44
2022-11-05T09:17:35.367Z,99537.25
2022-11-05T09:20:04.064Z,99551.00
2022-11-05T09:22:31.143Z,99549.44
2022-11-05T09:24:57.737Z,99550.38
2022-11-05T09:27:24.309Z,99557.22
2022-11-05T09:29:50.897Z,99551.97
2022-11-05T09:32:17.480Z,99549.88
2022-11-05T09:34:44.279Z,99545.38
2022-11-05T09:37:11.556Z,99549.00
2022-11-05T09:39:38.277Z,99555.19
2022-11-05T09:42:08.393Z,99554.97
2022-11-05T09:44:44.951Z,99545.59
2022-11-05T09:47:18.793Z,99548.19
2022-11-05T09:49:49.531Z,99546.44
2022-11-05T09:52:28.603Z,99551.88
2022-11-05T09:54:56.682Z,99550.47
2022-11-05T09:57:28.577Z,99539.22
2022-11-05T10:00:01.740Z,99549.25
2022-11-05T10:02:42.382Z,99550.72
2022-11-05T10:05:12.708Z,99549.06
2022-11-05T10:07:45.714Z,99544.69
2022-11-05T10:10:25.076Z,99540.56
2022-11-05T10:12:57.288Z,99543.91
2022-11-05T10:15:29.528Z,99550.28
2022-11-05T10:18:10.101Z,99549.09
2022-11-05T10:20:38.834Z,99559.63
2022-11-05T10:23:17.462Z,99560.78
2022-11-05T10:25:57.331Z,99554.16
2022-11-05T10:28:30.308Z,99546.16
2022-11-05T10:31:18.105Z,99550.47
2022-11-05T10:33:53.780Z,99542.06
2022-11-05T10:36:31.785Z,99552.81
2022-11-05T10:39:16.777Z,99555.22
2022-11-05T10:42:30.790Z,99555.53
2022-11-05T10:45:26.403Z,99555.31
2022-11-05T10:48:05.295Z,99557.16
2022-11-05T10:50:32.374Z,99560.97
2022-11-05T10:53:14.783Z,99557.31
2022-11-05T10:55:44.874Z,99557.13
2022-11-05T10:58:20.857Z,99563.03
2022-11-05T11:01:07.774Z,99566.88
2022-11-05T11:03:50.459Z,99578.94
2022-11-05T11:06:25.650Z,99574.25
2022-11-05T11:08:55.427Z,99580.81
2022-11-05T11:11:28.212Z,99579.66
2022-11-05T11:13:57.471Z,99585.06
2022-11-05T11:16:27.513Z,99593.19
2022-11-05T11:18:56.677Z,99582.25
2022-11-05T11:21:23.852Z,99574.66
2022-11-05T11:24:01.723Z,99571.88
2022-11-05T11:26:36.087Z,99573.44
2022-11-05T11:29:13.865Z,99576.31
2022-11-05T11:31:41.377Z,99573.91
2022-11-05T11:34:27.189Z,99573.16
2022-11-05T11:37:04.981Z,99574.28
2022-11-05T11:39:33.184Z,99584.00
2022-11-05T11:42:09.878Z,99594.97
2022-11-05T11:44:45.713Z,99593.03
2022-11-05T11:47:16.462Z,99587.06
2022-11-05T11:49:46.506Z,99590.78
2022-11-05T11:52:15.626Z,99584.13
2022-11-05T11:54:42.721Z,99581.75
2022-11-05T11:57:27.691Z,99584.06
2022-11-05T12:00:12.122Z,99576.19
2022-11-05T12:02:41.882Z,99594.28
2022-11-05T12:05:30.102Z,99588.53
2022-11-05T12:08:06.753Z,99592.00
2022-11-05T12:10:47.258Z,99586.25
2022-11-05T12:13:19.627Z,99584.75
2022-11-05T12:16:13.731Z,99586.09
2022-11-05T12:18:46.009Z,99589.28
2022-11-05T12:21:51.926Z,99597.13
2022-11-05T12:25:10.364Z,99604.16
2022-11-05T12:28:07.991Z,99612.75
2022-11-05T12:30:48.918Z,99616.53
2022-11-05T12:33:33.490Z,99611.00
2022-11-05T12:36:03.021Z,99611.44
2022-11-05T12:38:32.325Z,99615.44
2022-11-05T12:41:25.694Z,99616.44
2022-11-05T12:44:34.570Z,99615.31
2022-11-05T12:47:36.367Z,99610.16
2022-11-05T12:50:41.306Z,99625.78
2022-11-05T12:53:32.925Z,99631.44
2022-11-05T12:56:04.470Z,99632.50
2022-11-05T12:58:42.555Z,99628.19
2022-11-05T13:01:25.391Z,99628.72
2022-11-05T13:03:58.737Z,99632.06
2022-11-05T13:06:41.056Z,99634.31
2022-11-05T13:09:16.472Z,99631.69
2022-11-05T13:11:52.100Z,99628.03
2022-11-05T13:14:28.787Z,99626.13
2022-11-05T13:17:14.868Z,99624.00
2022-11-05T13:19:56.630Z,99618.53
2022-11-05T13:22:40.715Z,99624.38
2022-11-05T13:25:15.246Z,99624.50
2022-11-05T13:28:02.815Z,99625.59
2022-11-05T13:30:42.505Z,99639.53
2022-11-05T13:33:11.881Z,99634.03
2022-11-05T13:35:48.330Z,99633.72
2022-11-05T13:38:25.076Z,99636.56
2022-11-05T13:40:59.962Z,99637.56
2022-11-05T13:43:53.669Z,99644.34
2022-11-05T13:46:41.857Z,99649.56
2022-11-05T13:49:17.994Z,99650.56
2022-11-05T13:52:23.158Z,99656.69
2022-11-05T13:55:12.679Z,99655.38
2022-11-05T13:58:01.558Z,99661.84
2022-11-05T14:00:33.493Z,99673.38
2022-11-05T14:03:05.356Z,99667.13
2022-11-05T14:05:40.184Z,99670.84
2022-11-05T14:08:19.934Z,99659.75
2022-11-05T14:10:57.090Z,99673.53
2022-11-05T14:13:31.480Z,99667.00
2022-11-05T14:16:12.923Z,99673.22
2022-11-05T14:19:02.336Z,99674.59
2022-11-05T14:21:32.092Z,99671.44
2022-11-05T14:24:25.387Z,99678.84
2022-11-05T14:27:00.907Z,99678.84
2022-11-05T14:29:48.198Z,99687.09
2022-11-05T14:32:17.740Z,99691.63
2022-11-05T14:35:01.507Z,99698.63
2022-11-05T14:37:34.847Z,99701.00
2022-11-05T14:40:21.389Z,99691.50
2022-11-05T14:42:57.231Z,99694.94
2022-11-05T14:45:30.806Z,99689.56
2022-11-05T14:48:00.931Z,99689.59
2022-11-05T14:50:34.931Z,99704.25
2022-11-05T14:53:10.618Z,99690.97
2022-11-05T14:55:40.863Z,99700.28
2022-11-05T14:58:27.169Z,99705.38
2022-11-05T15:00:54.917Z,99706.59
2022-11-05T15:03:32.559Z,99710.06
2022-11-05T15:06:18.590Z,99709.47
2022-11-05T15:08:48.123Z,99712.69
2022-11-05T15:11:21.969Z,99706.72
2022-11-05T15:13:54.650Z,99709.41
2022-11-05T15:16:31.159Z,99707.44
2022-11-05T15:18:58.601Z,99709.88
2022-11-05T15:21:25.945Z,99711.59
2022-11-05T15:23:56.096Z,99710.44
2022-11-05T15:26:46.710Z,99709.63
2022-11-05T15:29:19.739Z,99712.81
2022-11-05T15:31:49.660Z,99716.81
2022-11-05T15:34:21.080Z,99725.28
2022-11-05T15:37:10.661Z,99717.25
2022-11-05T15:39:43.096Z,99730.66
2022-11-05T15:42:15.268Z,99729.59
2022-11-05T15:44:47.543Z,99733.88
2022-11-05T15:47:45.595Z,99732.28
2022-11-05T15:50:15.391Z,99743.88
2022-11-05T15:52:50.106Z,99737.84
2022-11-05T15:55:18.101Z,99744.41
2022-11-05T15:57:50.438Z,99748.00
2022-11-05T16:00:26.237Z,99743.59
2022-11-05T16:03:12.700Z,99751.94
2022-11-05T16:05:45.265Z,99747.63
2022-11-05T16:08:19.385Z,99755.59
2022-11-05T16:10:49.505Z,99755.06
2022-11-05T16:13:35.804Z,99760.94
2022-11-05T16:16:23.249Z,99756.88
2022-11-05T16:18:55.454Z,99757.50
2022-11-05T16:21:22.058Z,99756.00
2022-11-05T16:23:48.560Z,99766.16
2022-11-05T16:29:38.359Z,99777.09
2022-11-05T16:32:17.136Z,99772.13
2022-11-05T16:34:59.422Z,99781.00
2022-11-05T16:37:27.401Z,99782.63
2022-11-05T16:39:54.296Z,99786.41
2022-11-05T16:42:23.901Z,99785.16
2022-11-05T16:44:51.939Z,99774.81
2022-11-05T16:47:19.255Z,99788.81
2022-11-05T16:49:47.865Z,99790.22
2022-11-05T16:52:15.043Z,99794.22
2022-11-05T16:54:41.736Z,99796.53
2022-11-05T16:57:23.737Z,99803.38
2022-11-05T16:59:50.425Z,99807.81
2022-11-05T17:02:17.248Z,99797.34
2022-11-05T17:04:43.970Z,99810.59
2022-11-05T17:07:10.525Z,99809.31
2022-11-05T17:09:37.306Z,99818.38
2022-11-05T17:12:04.119Z,99815.81
2022-11-05T17:14:30.691Z,99815.00
2022-11-05T17:17:00.160Z,99817.41
2022-11-05T17:19:26.791Z,99823.06
2022-11-05T17:21:53.368Z,99814.00
2022-11-05T17:24:19.997Z,99825.97
2022-11-05T17:26:46.584Z,99828.16
2022-11-05T17:29:13.168Z,99824.66
2022-11-05T17:31:40.753Z,99823.50
2022-11-05T17:34:07.389Z,99823.56
2022-11-05T17:36:33.966Z,99827.22
2022-11-05T17:39:00.563Z,99828.28
2022-11-05T17:41:27.201Z,99834.91
2022-11-05T17:43:55.851Z,99833.53
2022-11-05T17:46:24.338Z,99831.94
2022-11-05T17:48:50.927Z,99832.53
2022-11-05T17:51:19.118Z,99832.31
2022-11-05T17:53:46.979Z,99833.00
2022-11-05T17:56:24.544Z,99835.03
2022-11-05T17:58:56.063Z,99838.16
2022-11-05T18:01:26.408Z,99840.53
2022-11-05T18:03:53.465Z,99854.56
2022-11-05T18:06:20.242Z,99857.97
2022-11-05T18:08:47.300Z,99858.91
2022-11-05T18:11:13.983Z,99855.72
2022-11-05T18:13:40.696Z,99863.78
2022-11-05T18:16:07.605Z,99867.97
2022-11-05T18:18:34.491Z,99870.03
2022-11-05T18:21:01.276Z,99873.72
2022-11-05T18:23:27.944Z,99872.28
2022-11-05T18:25:54.520Z,99873.53
2022-11-05T18:28:21.108Z,99874.09
2022-11-05T18:30:47.731Z,99874.91
2022-11-05T18:33:14.537Z,99883.44
2022-11-05T18:35:44.726Z,99885.03
2022-11-05T18:38:12.167Z,99888.41
2022-11-05T18:40:38.988Z,99892.00
2022-11-05T18:43:05.542Z,99900.56
2022-11-05T18:45:32.148Z,99895.44
2022-11-05T18:48:01.108Z,99901.16
2022-11-05T18:50:28.386Z,99905.16
2022-11-05T18:52:54.976Z,99907.25
2022-11-05T18:55:21.979Z,99905.88
2022-11-05T18:57:48.560Z,99909.38
2022-11-05T19:00:15.813Z,99907.91
2022-11-05T19:02:42.896Z,99906.81
2022-11-05T19:07:56.516Z,99917.53
2022-11-05T19:10:23.184Z,99918.25
2022-11-05T19:12:49.820Z,99913.28
2022-11-05T19:15:16.966Z,99915.00
2022-11-05T19:17:43.558Z,99924.81
2022-11-05T19:20:10.590Z,99932.69
2022-11-05T19:22:37.268Z,99925.44
2022-11-05T19:25:04.738Z,99933.69
2022-11-05T19:27:31.926Z,99934.44
2022-11-05T19:29:58.497Z,99942.19
2022-11-05T19:32:25.051Z,99942.41
2022-11-05T19:34:51.660Z,99944.00
2022-11-05T19:37:18.265Z,99946.66
2022-11-05T19:39:44.840Z,99962.72
2022-11-05T19:42:11.478Z,99956.28
2022-11-05T19:44:38.021Z,99960.78
2022-11-05T19:47:04.734Z,99965.25
2022-11-05T19:49:32.477Z,99971.28
2022-11-05T19:51:59.079Z,99976.72
2022-11-05T19:54:25.654Z,99982.03
2022-11-05T19:56:52.314Z,99981.78
2022-11-05T19:59:19.241Z,99987.13
2022-11-05T20:01:45.912Z,99989.84
2022-11-05T20:04:12.676Z,99994.13
2022-11-05T20:06:39.390Z,100001.75
2022-11-05T20:09:25.241Z,100006.09
2022-11-05T20:11:53.319Z,99997.63
2022-11-05T20:14:20.268Z,100011.66
2022-11-05T20:16:47.131Z,100009.63
2022-11-05T20:19:16.621Z,100010.34
2022-11-05T20:21:43.694Z,100012.50
2022-11-05T20:24:20.307Z,100012.25
2022-11-05T20:26:56.917Z,100018.38
2022-11-05T20:29:29.063Z,100018.50
2022-11-05T20:31:57.332Z,100023.47
2022-11-05T20:34:24.246Z,100026.78
2022-11-05T20:36:50.841Z,100024.59
2022-11-05T20:39:17.889Z,100022.00
2022-11-05T20:41:44.491Z,100032.97
2022-11-05T20:44:11.100Z,100023.63
2022-11-05T20:46:37.749Z,100027.31
2022-11-05T20:49:04.391Z,100028.66
2022-11-05T20:51:30.973Z,100027.09
2022-11-05T20:53:59.758Z,100033.06
2022-11-05T20:56:29.232Z,100035.13
2022-11-05T20:58:57.481Z,100036.94
2022-11-05T21:01:25.098Z,100041.13
2022-11-05T21:03:51.732Z,100043.75
2022-11-05T21:06:18.389Z,100045.69
2022-11-05T21:08:51.149Z,100048.28
2022-11-05T21:11:19.114Z,100050.22
2022-11-05T21:13:46.374Z,100057.03
2022-11-05T21:16:17.981Z,100052.91
2022-11-05T21:18:46.417Z,100049.78
2022-11-05T21:21:16.211Z,100053.44
2022-11-05T21:23:43.019Z,100054.63
2022-11-05T21:26:12.878Z,100059.28
2022-11-05T21:28:40.814Z,100051.84
2022-11-05T21:31:08.024Z,100046.25
2022-11-05T21:33:34.812Z,100048.28
2022-11-05T21:36:09.775Z,100051.88
2022-11-05T21:38:37.109Z,100048.38
2022-11-05T21:41:04.770Z,100056.44
2022-11-05T21:43:31.404Z,100057.06
2022-11-05T21:46:01.424Z,100055.41
2022-11-05T21:48:28.047Z,100051.84
2022-11-05T21:50:54.627Z,100065.84
2022-11-05T21:53:21.181Z,100062.00
2022-11-05T21:55:47.755Z,100058.69
2022-11-05T21:58:16.356Z,100064.00
2022-11-05T22:00:42.915Z,100060.25
2022-11-05T22:03:09.483Z,100062.19
2022-11-05T22:05:36.247Z,100064.09
2022-11-05T22:08:02.825Z,100067.47
2022-11-05T22:10:29.405Z,100068.31
2022-11-05T22:12:56.012Z,100061.16
2022-11-05T22:15:22.653Z,100070.03
2022-11-05T22:17:50.783Z,100070.88
2022-11-05T22:20:17.412Z,100065.72
2022-11-05T22:22:44.226Z,100065.84
2022-11-05T22:25:10.821Z,100062.06
2022-11-05T22:27:37.382Z,100072.94
2022-11-05T22:30:04.406Z,100066.38
2022-11-05T22:32:30.980Z,100065.44
2022-11-05T22:34:57.643Z,100069.72
2022-11-05T22:37:24.210Z,100070.97
2022-11-05T22:39:50.830Z,100068.31
2022-11-05T22:42:17.523Z,100070.31
2022-11-05T22:44:44.174Z,100077.16
2022-11-05T22:47:10.758Z,100076.28
2022-11-05T22:49:37.395Z,100071.91
2022-11-05T22:52:04.102Z,100080.56
2022-11-05T22:54:37.942Z,100075.31
2022-11-05T22:57:05.728Z,100077.19
2022-11-05T22:59:32.311Z,100082.22
2022-11-05T23:01:58.930Z,100079.31
2022-11-05T23:04:25.652Z,100080.94
2022-11-05T23:06:52.301Z,100083.91
2022-11-05T23:09:22.214Z,100080.22
2022-11-05T23:11:51.835Z,100080.00
2022-11-05T23:14:18.459Z,100084.53
2022-11-05T23:16:45.250Z,100082.34
2022-11-05T23:19:12.282Z,100079.69
2022-11-05T23:21:38.862Z,100086.59
2022-11-05T23:24:05.916Z,100090.47
2022-11-05T23:26:34.302Z,100086.97
2022-11-05T23:29:00.959Z,100094.56
2022-11-05T23:31:27.562Z,100095.34
2022-11-05T23:33:54.163Z,100098.91
2022-11-05T23:36:20.824Z,100095.28
2022-11-05T23:38:47.595Z,100098.06
2022-11-05T23:41:14.154Z,100098.03
2022-11-05T23:43:40.724Z,100098.72
2022-11-05T23:46:07.844Z,100095.28
2022-11-05T23:48:36.507Z,100097.19
2022-11-05T23:51:09.190Z,100087.63
2022-11-05T23:53:39.546Z,100103.25
2022-11-05T23:56:12.907Z,100098.69
2022-11-05T23:58:40.736Z,100105.78
